createdAt,value
2022-08-23T00:01:23.870Z,98720.78
2022-08-23T00:04:19.549Z,98730.72
2022-08-23T00:07:12.093Z,98734.41
2022-08-23T00:09:59.267Z,98732.50
2022-08-23T00:12:47.223Z,98728.81
2022-08-23T00:15:34.094Z,98718.91
2022-08-23T00:18:24.401Z,98717.75
2022-08-23T00:21:13.155Z,98742.63
2022-08-23T00:24:00.001Z,98701.75
2022-08-23T00:27:02.173Z,98710.84
2022-08-23T00:29:52.377Z,98698.88
2022-08-23T00:32:40.744Z,98713.47
2022-08-23T00:35:28.137Z,98711.75
2022-08-23T00:38:32.857Z,98715.44
2022-08-23T00:41:22.873Z,98688.44
2022-08-23T00:44:36.316Z,98663.53
2022-08-23T00:47:41.336Z,98653.91
2022-08-23T00:50:56.577Z,98659.09
2022-08-23T00:53:52.264Z,98658.31
2022-08-23T00:56:39.834Z,98655.75
2022-08-23T00:59:26.693Z,98670.38
2022-08-23T01:02:14.707Z,98669.38
2022-08-23T01:05:03.463Z,98663.69
2022-08-23T01:07:57.542Z,98655.34
2022-08-23T01:10:54.576Z,98661.19
2022-08-23T01:13:50.124Z,98668.53
2022-08-23T01:16:45.745Z,98667.53
2022-08-23T01:19:36.794Z,98652.78
2022-08-23T01:22:42.209Z,98653.34
2022-08-23T01:25:34.968Z,98659.41
2022-08-23T01:28:21.870Z,98668.66
2022-08-23T01:31:09.734Z,98663.75
2022-08-23T01:34:11.142Z,98686.81
2022-08-23T01:36:59.201Z,98673.13
2022-08-23T01:39:46.259Z,98669.75
2022-08-23T01:42:33.284Z,98676.66
2022-08-23T01:45:20.538Z,98675.03
2022-08-23T01:48:07.641Z,98665.97
2022-08-23T01:50:54.568Z,98669.31
2022-08-23T01:53:43.476Z,98655.50
2022-08-23T01:56:38.982Z,98641.47
2022-08-23T01:59:28.467Z,98641.22
2022-08-23T02:02:15.692Z,98645.25
2022-08-23T02:05:02.901Z,98643.19
2022-08-23T02:07:50.131Z,98635.84
2022-08-23T02:10:38.317Z,98648.03
2022-08-23T02:13:25.285Z,98643.81
2022-08-23T02:16:14.947Z,98634.13
2022-08-23T02:19:05.961Z,98645.88
2022-08-23T02:21:53.091Z,98645.03
2022-08-23T02:24:43.650Z,98653.06
2022-08-23T02:27:30.591Z,98650.94
2022-08-23T02:30:17.834Z,98642.66
2022-08-23T02:33:05.029Z,98644.56
2022-08-23T02:35:34.313Z,98651.75
2022-08-23T02:38:12.321Z,98659.63
2022-08-23T02:40:40.525Z,98645.97
2022-08-23T02:43:07.458Z,98656.88
2022-08-23T02:45:36.850Z,98651.59
2022-08-23T02:48:05.017Z,98654.38
2022-08-23T02:50:40.770Z,98649.91
2022-08-23T02:53:09.735Z,98653.97
2022-08-23T02:55:37.600Z,98646.41
2022-08-23T02:58:05.565Z,98649.06
2022-08-23T03:00:32.256Z,98648.88
2022-08-23T03:02:58.968Z,98647.88
2022-08-23T03:05:26.759Z,98639.59
2022-08-23T03:07:53.507Z,98639.59
2022-08-23T03:10:23.967Z,98645.97
2022-08-23T03:12:57.221Z,98640.63
2022-08-23T03:15:27.215Z,98643.66
2022-08-23T03:17:56.130Z,98629.53
2022-08-23T03:20:26.076Z,98632.66
2022-08-23T03:22:54.407Z,98631.81
2022-08-23T03:25:22.948Z,98628.03
2022-08-23T03:28:09.046Z,98636.47
2022-08-23T03:30:40.950Z,98642.81
2022-08-23T03:33:08.955Z,98634.16
2022-08-23T03:35:35.782Z,98635.03
2022-08-23T03:38:05.724Z,98636.13
2022-08-23T03:40:32.407Z,98634.00
2022-08-23T03:43:01.323Z,98640.41
2022-08-23T03:45:29.619Z,98636.91
2022-08-23T03:47:56.289Z,98640.00
2022-08-23T03:50:23.637Z,98645.72
2022-08-23T03:52:53.634Z,98640.56
2022-08-23T03:55:20.623Z,98643.09
2022-08-23T03:57:53.219Z,98638.50
2022-08-23T04:00:21.568Z,98638.56
2022-08-23T04:02:53.808Z,98639.94
2022-08-23T04:05:22.167Z,98634.72
2022-08-23T04:07:57.581Z,98629.34
2022-08-23T04:10:29.143Z,98630.31
2022-08-23T04:12:57.984Z,98640.16
2022-08-23T04:15:24.855Z,98631.88
2022-08-23T04:17:51.922Z,98637.00
2022-08-23T04:20:21.000Z,98638.63
2022-08-23T04:22:56.425Z,98643.16
2022-08-23T04:25:33.779Z,98647.38
2022-08-23T04:28:02.566Z,98648.38
2022-08-23T04:30:29.983Z,98646.13
2022-08-23T04:32:57.273Z,98653.31
2022-08-23T04:35:27.241Z,98646.41
2022-08-23T04:37:54.232Z,98649.09
2022-08-23T04:40:44.207Z,98651.94
2022-08-23T04:43:15.991Z,98661.03
2022-08-23T04:45:42.938Z,98672.69
2022-08-23T04:48:22.358Z,98668.09
2022-08-23T04:50:50.601Z,98671.16
2022-08-23T04:53:19.311Z,98680.94
2022-08-23T04:55:56.424Z,98689.28
2022-08-23T04:58:23.034Z,98690.31
2022-08-23T05:00:52.827Z,98691.28
2022-08-23T05:03:27.454Z,98695.22
2022-08-23T05:05:58.082Z,98707.75
2022-08-23T05:08:32.344Z,98710.41
2022-08-23T05:11:09.386Z,98705.63
2022-08-23T05:13:39.426Z,98716.09
2022-08-23T05:16:10.866Z,98716.81
2022-08-23T05:18:49.957Z,98710.31
2022-08-23T05:21:19.538Z,98719.66
2022-08-23T05:23:50.886Z,98714.00
2022-08-23T05:26:22.362Z,98728.69
2022-08-23T05:28:50.204Z,98731.50
2022-08-23T05:31:26.400Z,98744.75
2022-08-23T05:33:55.078Z,98751.31
2022-08-23T05:36:37.767Z,98746.06
2022-08-23T05:39:24.132Z,98750.44
2022-08-23T05:42:04.693Z,98746.03
2022-08-23T05:44:34.317Z,98756.47
2022-08-23T05:47:12.445Z,98756.66
2022-08-23T05:50:04.358Z,98760.25
2022-08-23T05:52:34.560Z,98783.28
2022-08-23T05:55:01.890Z,98785.78
2022-08-23T05:57:40.783Z,98797.47
2022-08-23T06:00:15.567Z,98821.19
2022-08-23T06:02:57.348Z,98878.47
2022-08-23T06:05:24.029Z,98927.97
2022-08-23T06:07:51.034Z,98966.03
2022-08-23T06:10:21.460Z,98943.47
2022-08-23T06:13:04.763Z,98904.38
2022-08-23T06:15:32.420Z,98887.56
2022-08-23T06:17:59.465Z,98894.44
2022-08-23T06:20:28.664Z,98880.28
2022-08-23T06:23:00.568Z,98870.03
2022-08-23T06:25:30.340Z,98866.59
2022-08-23T06:28:06.955Z,98858.69
2022-08-23T06:30:37.017Z,98861.28
2022-08-23T06:33:15.603Z,98863.47
2022-08-23T06:36:11.849Z,98860.97
2022-08-23T06:39:06.545Z,98865.00
2022-08-23T06:41:48.532Z,98869.06
2022-08-23T06:44:27.392Z,98878.84
2022-08-23T06:47:05.070Z,98875.63
2022-08-23T06:49:32.041Z,98883.03
2022-08-23T06:52:04.193Z,98886.09
2022-08-23T06:54:49.421Z,98898.50
2022-08-23T06:57:38.766Z,98925.53
2022-08-23T07:00:26.244Z,98949.00
2022-08-23T07:03:05.263Z,98970.69
2022-08-23T07:06:10.344Z,98048.69
2022-08-23T07:08:39.608Z,98150.41
2022-08-23T07:11:08.167Z,98231.47
2022-08-23T07:13:39.838Z,98202.31
2022-08-23T07:16:07.190Z,98253.94
2022-08-23T07:18:36.801Z,98200.56
2022-08-23T07:21:04.728Z,98311.22
2022-08-23T07:23:33.684Z,98416.03
2022-08-23T07:26:07.334Z,98381.38
2022-08-23T07:28:34.373Z,98464.06
2022-08-23T07:31:14.975Z,98459.16
2022-08-23T07:33:45.758Z,98413.91
2022-08-23T07:36:20.938Z,98353.09
2022-08-23T07:38:51.661Z,98442.06
2022-08-23T07:41:20.488Z,98473.50
2022-08-23T07:43:48.533Z,98457.84
2022-08-23T07:46:16.074Z,98476.28
2022-08-23T07:48:54.001Z,98402.78
2022-08-23T07:51:36.075Z,98495.88
2022-08-23T07:54:10.747Z,98448.03
2022-08-23T07:56:48.559Z,98449.13
2022-08-23T07:59:28.006Z,98437.50
2022-08-23T08:02:10.667Z,98441.94
2022-08-23T08:04:37.498Z,98446.72
2022-08-23T08:07:18.969Z,98502.19
2022-08-23T08:09:55.177Z,98495.28
2022-08-23T08:12:23.831Z,98512.72
2022-08-23T08:14:53.589Z,98536.50
2022-08-23T08:17:27.550Z,98504.94
2022-08-23T08:20:12.214Z,98512.03
2022-08-23T08:22:46.693Z,98535.25
2022-08-23T08:25:14.608Z,98535.47
2022-08-23T08:27:42.907Z,98532.16
2022-08-23T08:30:11.813Z,98536.94
2022-08-23T08:32:47.029Z,98545.25
2022-08-23T08:35:15.290Z,98533.66
2022-08-23T08:37:46.185Z,98523.03
2022-08-23T08:40:24.958Z,98536.53
2022-08-23T08:43:10.032Z,98492.03
2022-08-23T08:46:05.193Z,98512.03
2022-08-23T08:48:56.983Z,98510.41
2022-08-23T08:51:36.287Z,98513.91
2022-08-23T08:54:08.759Z,98542.56
2022-08-23T08:56:46.793Z,98524.91
2022-08-23T08:59:37.636Z,98508.16
2022-08-23T09:02:07.305Z,98527.88
2022-08-23T09:04:54.478Z,98539.34
2022-08-23T09:07:56.378Z,98467.25
2022-08-23T09:10:54.112Z,98471.56
2022-08-23T09:13:53.411Z,98482.78
2022-08-23T09:16:38.852Z,98495.28
2022-08-23T09:19:08.695Z,98523.28
2022-08-23T09:21:47.858Z,98470.38
2022-08-23T09:24:14.722Z,98529.41
2022-08-23T09:26:57.605Z,98505.81
2022-08-23T09:29:28.030Z,98520.88
2022-08-23T09:31:58.241Z,98451.41
2022-08-23T09:34:30.504Z,98505.38
2022-08-23T09:37:09.840Z,98463.41
2022-08-23T09:39:42.232Z,98436.88
2022-08-23T09:42:37.116Z,98475.78
2022-08-23T09:45:35.146Z,98503.34
2022-08-23T09:48:04.991Z,98495.66
2022-08-23T09:50:45.503Z,98471.97
2022-08-23T09:53:16.027Z,98490.44
2022-08-23T09:55:49.981Z,98468.75
2022-08-23T09:58:31.946Z,98435.72
2022-08-23T10:01:27.061Z,98424.06
2022-08-23T10:04:10.316Z,98450.28
2022-08-23T10:06:38.060Z,98444.97
2022-08-23T10:09:08.842Z,98438.69
2022-08-23T10:11:44.844Z,98431.25
2022-08-23T10:14:15.213Z,98437.44
2022-08-23T10:17:10.246Z,98423.16
2022-08-23T10:19:37.461Z,98427.75
2022-08-23T10:22:12.202Z,98428.84
2022-08-23T10:24:55.126Z,98442.88
2022-08-23T10:28:10.289Z,98406.78
2022-08-23T10:30:57.897Z,98431.56
2022-08-23T10:33:27.662Z,98425.03
2022-08-23T10:36:36.113Z,98397.31
2022-08-23T10:39:11.495Z,98405.06
2022-08-23T10:41:49.604Z,98389.06
2022-08-23T10:44:41.081Z,98408.69
2022-08-23T10:47:30.515Z,98410.28
2022-08-23T10:50:00.214Z,98405.72
2022-08-23T10:52:39.027Z,98382.59
2022-08-23T10:55:17.571Z,98385.06
2022-08-23T10:57:48.588Z,98389.06
2022-08-23T11:00:27.285Z,98426.91
2022-08-23T11:03:24.409Z,98446.78
2022-08-23T11:06:27.408Z,98464.31
2022-08-23T11:09:21.288Z,98463.25
2022-08-23T11:12:22.232Z,98460.22
2022-08-23T11:14:54.646Z,98437.66
2022-08-23T11:17:26.954Z,98449.03
2022-08-23T11:20:00.407Z,98415.56
2022-08-23T11:22:53.651Z,98415.13
2022-08-23T11:25:22.848Z,98422.84
2022-08-23T11:27:49.543Z,98412.53
2022-08-23T11:30:34.513Z,98395.16
2022-08-23T11:33:34.613Z,98420.53
2022-08-23T11:36:11.342Z,98418.72
2022-08-23T11:38:48.272Z,98396.06
2022-08-23T11:41:22.778Z,98380.78
2022-08-23T11:44:06.308Z,98381.75
2022-08-23T11:46:54.446Z,98387.03
2022-08-23T11:49:30.067Z,98386.34
2022-08-23T11:52:05.781Z,98397.38
2022-08-23T11:54:59.864Z,98401.16
2022-08-23T11:57:51.853Z,98385.16
2022-08-23T12:00:26.939Z,98369.91
2022-08-23T12:03:04.225Z,98366.44
2022-08-23T12:05:33.887Z,98372.31
2022-08-23T12:08:03.384Z,98360.66
2022-08-23T12:10:42.268Z,98358.88
2022-08-23T12:13:20.923Z,98364.94
2022-08-23T12:16:19.318Z,98358.25
2022-08-23T12:18:48.849Z,98389.97
2022-08-23T12:21:34.406Z,98367.81
2022-08-23T12:24:30.386Z,98369.97
2022-08-23T12:27:32.329Z,98361.09
2022-08-23T12:30:10.993Z,98348.50
2022-08-23T12:32:44.346Z,98342.84
2022-08-23T12:35:30.179Z,98361.56
2022-08-23T12:38:19.803Z,98328.69
2022-08-23T12:40:54.533Z,98352.50
2022-08-23T12:43:29.186Z,98351.72
2022-08-23T12:46:02.664Z,98315.72
2022-08-23T12:48:44.987Z,98328.91
2022-08-23T12:51:15.724Z,98341.31
2022-08-23T12:53:46.939Z,98339.91
2022-08-23T12:56:31.345Z,98325.88
2022-08-23T12:59:14.045Z,98324.34
2022-08-23T13:01:41.978Z,98350.06
2022-08-23T13:04:13.164Z,98329.22
2022-08-23T13:06:45.636Z,98328.38
2022-08-23T13:09:12.099Z,98333.47
2022-08-23T13:11:39.380Z,98340.34
2022-08-23T13:14:45.024Z,98348.06
2022-08-23T13:17:23.893Z,98326.34
2022-08-23T13:20:11.458Z,98337.41
2022-08-23T13:22:42.056Z,98326.34
2022-08-23T13:25:32.303Z,98332.63
2022-08-23T13:28:04.939Z,98333.47
2022-08-23T13:30:39.029Z,98341.75
2022-08-23T13:33:08.354Z,98336.16
2022-08-23T13:35:38.179Z,98324.31
2022-08-23T13:38:07.545Z,98332.88
2022-08-23T13:40:52.745Z,98317.66
2022-08-23T13:43:23.884Z,98324.03
2022-08-23T13:45:55.544Z,98316.13
2022-08-23T13:48:30.276Z,98317.31
2022-08-23T13:51:28.717Z,98291.44
2022-08-23T13:53:57.458Z,98306.69
2022-08-23T13:56:27.771Z,98309.38
2022-08-23T13:59:31.219Z,98306.97
2022-08-23T14:02:06.660Z,98284.94
2022-08-23T14:04:33.663Z,98285.78
2022-08-23T14:07:02.585Z,98283.16
2022-08-23T14:09:33.496Z,98280.47
2022-08-23T14:12:09.668Z,98285.34
2022-08-23T14:14:38.813Z,98283.91
2022-08-23T14:17:06.432Z,98295.31
2022-08-23T14:22:25.012Z,98306.59
2022-08-23T14:24:51.570Z,98274.47
2022-08-23T14:27:20.710Z,98291.44
2022-08-23T14:29:49.735Z,98300.84
2022-08-23T14:32:16.302Z,98298.81
2022-08-23T14:34:43.111Z,98297.88
2022-08-23T14:39:58.694Z,98293.50
2022-08-23T14:42:27.862Z,98299.66
2022-08-23T14:44:56.728Z,98272.28
2022-08-23T14:47:23.282Z,98294.69
2022-08-23T14:49:52.096Z,98313.66
2022-08-23T14:52:21.127Z,98307.16
2022-08-23T14:54:47.955Z,98306.19
2022-08-23T14:57:17.062Z,98311.16
2022-08-23T14:59:43.631Z,98302.53
2022-08-23T15:02:12.976Z,98311.28
2022-08-23T15:04:40.418Z,98323.50
2022-08-23T15:07:22.194Z,98311.28
2022-08-23T15:09:50.387Z,98312.22
2022-08-23T15:15:14.840Z,98312.38
2022-08-23T15:17:52.529Z,98307.00
2022-08-23T15:20:23.286Z,98290.63
2022-08-23T15:22:52.407Z,98278.81
2022-08-23T15:25:29.565Z,98312.97
2022-08-23T15:27:56.640Z,98297.66
2022-08-23T15:30:24.002Z,98299.56
2022-08-23T15:32:56.593Z,98300.75
2022-08-23T15:35:24.407Z,98303.75
2022-08-23T15:37:54.423Z,98297.16
2022-08-23T15:40:23.413Z,98289.59
2022-08-23T15:42:50.055Z,98275.00
2022-08-23T15:45:19.486Z,98277.38
2022-08-23T15:47:52.727Z,98284.38
2022-08-23T15:50:22.742Z,98274.06
2022-08-23T15:52:49.587Z,98267.31
2022-08-23T15:55:17.645Z,98266.00
2022-08-23T15:57:51.823Z,98259.94
2022-08-23T16:00:20.856Z,98269.78
2022-08-23T16:03:14.452Z,98255.69
2022-08-23T16:05:34.264Z,98264.81
2022-08-23T16:08:00.838Z,98264.34
2022-08-23T16:10:29.966Z,98261.63
2022-08-23T16:12:58.722Z,98252.63
2022-08-23T16:15:25.270Z,98252.50
2022-08-23T16:17:51.941Z,98257.34
2022-08-23T16:20:18.540Z,98258.53
2022-08-23T16:22:45.165Z,98257.84
2022-08-23T16:25:11.804Z,98256.53
2022-08-23T16:27:40.956Z,98243.16
2022-08-23T16:30:08.531Z,98238.63
2022-08-23T16:32:40.176Z,98241.13
2022-08-23T16:35:07.303Z,98225.97
2022-08-23T16:37:33.861Z,98200.50
2022-08-23T16:40:06.114Z,98210.09
2022-08-23T16:42:32.670Z,98191.50
2022-08-23T16:45:04.196Z,98185.47
2022-08-23T16:47:35.261Z,98200.75
2022-08-23T16:50:04.850Z,98201.81
2022-08-23T16:52:34.638Z,98162.22
2022-08-23T16:55:07.952Z,98147.06
2022-08-23T16:57:37.356Z,98153.00
2022-08-23T17:00:08.053Z,98176.13
2022-08-23T17:02:36.871Z,98158.34
2022-08-23T17:05:06.395Z,98155.47
2022-08-23T17:07:33.024Z,98172.28
2022-08-23T17:10:02.036Z,98124.09
2022-08-23T17:12:28.823Z,98116.88
2022-08-23T17:14:57.830Z,98099.50
2022-08-23T17:17:25.109Z,98099.34
2022-08-23T17:19:54.230Z,98106.59
2022-08-23T17:22:23.363Z,98114.28
2022-08-23T17:24:53.395Z,98100.53
2022-08-23T17:27:20.048Z,98078.97
2022-08-23T17:29:46.645Z,98073.78
2022-08-23T17:32:13.480Z,98093.50
2022-08-23T17:34:42.203Z,98102.41
2022-08-23T17:37:20.342Z,98080.13
2022-08-23T17:39:47.753Z,98078.22
2022-08-23T17:42:20.682Z,98086.63
2022-08-23T17:44:49.688Z,98091.47
2022-08-23T17:47:17.999Z,98093.94
2022-08-23T17:49:46.575Z,98082.69
2022-08-23T17:52:13.478Z,98086.31
2022-08-23T17:54:41.198Z,98082.66
2022-08-23T17:57:10.442Z,98092.31
2022-08-23T17:59:37.725Z,98092.41
2022-08-23T18:02:09.675Z,98067.69
2022-08-23T18:04:36.443Z,98078.03
2022-08-23T18:07:03.962Z,98057.00
2022-08-23T18:09:30.918Z,98076.69
2022-08-23T18:12:00.131Z,98083.72
2022-08-23T18:14:30.058Z,98062.06
2022-08-23T18:16:59.104Z,98089.09
2022-08-23T18:19:25.688Z,98073.69
2022-08-23T18:21:52.262Z,98088.41
2022-08-23T18:24:19.257Z,98091.44
2022-08-23T18:27:04.679Z,98108.09
2022-08-23T18:29:36.383Z,98113.56
2022-08-23T18:32:05.705Z,98095.31
2022-08-23T18:34:33.555Z,98108.75
2022-08-23T18:37:00.135Z,98092.06
2022-08-23T18:39:31.577Z,98107.28
2022-08-23T18:42:00.947Z,98106.53
2022-08-23T18:44:30.009Z,98106.59
2022-08-23T18:46:56.736Z,98093.47
2022-08-23T18:49:23.326Z,98107.06
2022-08-23T18:51:52.513Z,98107.09
2022-08-23T18:54:21.387Z,98116.97
2022-08-23T18:56:47.918Z,98085.75
2022-08-23T18:59:17.081Z,98087.41
2022-08-23T19:01:46.071Z,98099.75
2022-08-23T19:04:13.696Z,98103.31
2022-08-23T19:06:41.245Z,98095.47
2022-08-23T19:09:09.067Z,98097.78
2022-08-23T19:11:42.698Z,98114.09
2022-08-23T19:14:12.471Z,98105.34
2022-08-23T19:16:43.476Z,98105.63
2022-08-23T19:19:12.381Z,98094.59
2022-08-23T19:21:41.299Z,98101.06
2022-08-23T19:24:07.937Z,98099.03
2022-08-23T19:26:36.034Z,98095.69
2022-08-23T19:29:06.197Z,98094.63
2022-08-23T19:31:37.283Z,98089.69
2022-08-23T19:34:07.713Z,98093.88
2022-08-23T19:36:46.666Z,98092.03
2022-08-23T19:39:15.259Z,98087.72
2022-08-23T19:41:41.885Z,98096.28
2022-08-23T19:44:08.650Z,98088.63
2022-08-23T19:46:41.199Z,98087.00
2022-08-23T19:49:10.219Z,98080.75
2022-08-23T19:51:39.857Z,98083.50
2022-08-23T19:54:11.469Z,98103.69
2022-08-23T19:56:42.486Z,98095.16
2022-08-23T19:59:12.274Z,98096.63
2022-08-23T20:01:39.417Z,98123.47
2022-08-23T20:04:06.593Z,98131.81
2022-08-23T20:06:33.662Z,98123.09
2022-08-23T20:09:00.494Z,98163.88
2022-08-23T20:11:27.912Z,98216.50
2022-08-23T20:13:58.209Z,98242.31
2022-08-23T20:16:26.743Z,98259.56
2022-08-23T20:18:56.284Z,98316.97
2022-08-23T20:21:25.457Z,98361.03
2022-08-23T20:24:01.546Z,98458.53
2022-08-23T20:26:40.421Z,98509.75
2022-08-23T20:29:10.147Z,98565.69
2022-08-23T20:31:40.327Z,98576.25
2022-08-23T20:34:08.785Z,98577.97
2022-08-23T20:36:36.003Z,98596.31
2022-08-23T20:39:05.208Z,98735.66
2022-08-23T20:41:36.068Z,98814.50
2022-08-23T20:44:04.272Z,98910.97
2022-08-23T20:46:31.494Z,98914.06
2022-08-23T20:48:58.340Z,99062.38
2022-08-23T20:51:28.488Z,98982.50
2022-08-23T20:53:56.100Z,99026.25
2022-08-23T20:56:23.463Z,99121.66
2022-08-23T20:58:50.855Z,99037.41
2022-08-23T21:01:18.033Z,99173.50
2022-08-23T21:04:03.443Z,99225.13
2022-08-23T21:06:51.998Z,99275.78
2022-08-23T21:09:42.728Z,99285.09
2022-08-23T21:12:29.601Z,99276.66
2022-08-23T21:15:16.551Z,99258.28
2022-08-23T21:18:03.469Z,99276.81
2022-08-23T21:20:51.142Z,99296.59
2022-08-23T21:23:38.924Z,99297.09
2022-08-23T21:26:25.968Z,99300.44
2022-08-23T21:29:12.852Z,99289.34
2022-08-23T21:31:59.728Z,99300.47
2022-08-23T21:34:46.626Z,99294.56
2022-08-23T21:37:35.368Z,99310.75
2022-08-23T21:40:23.415Z,99309.75
2022-08-23T21:43:10.377Z,99313.63
2022-08-23T21:45:57.498Z,99303.50
2022-08-23T21:48:44.372Z,99307.84
2022-08-23T21:51:31.417Z,99304.97
2022-08-23T21:54:21.808Z,99321.00
2022-08-23T21:57:08.608Z,99311.38
2022-08-23T21:59:55.518Z,99270.75
2022-08-23T22:02:42.748Z,99301.91
2022-08-23T22:05:29.667Z,99297.38
2022-08-23T22:08:17.039Z,99313.72
2022-08-23T22:11:07.104Z,99279.84
2022-08-23T22:13:54.446Z,99289.75
2022-08-23T22:16:43.999Z,99286.91
2022-08-23T22:19:31.013Z,99254.88
2022-08-23T22:22:17.898Z,99272.06
2022-08-23T22:25:05.247Z,99304.06
2022-08-23T22:27:52.925Z,99238.16
2022-08-23T22:30:42.425Z,99247.25
2022-08-23T22:33:32.216Z,99208.16
2022-08-23T22:36:23.961Z,99204.97
2022-08-23T22:39:12.337Z,99212.38
2022-08-23T22:42:01.642Z,99216.44
2022-08-23T22:44:51.100Z,99238.47
2022-08-23T22:47:38.219Z,99213.22
2022-08-23T22:50:25.091Z,99205.88
2022-08-23T22:53:12.373Z,99194.44
2022-08-23T22:56:01.853Z,99171.50
2022-08-23T22:58:53.681Z,99192.72
2022-08-23T23:01:44.258Z,99187.81
2022-08-23T23:04:32.327Z,99185.19
2022-08-23T23:07:39.180Z,99197.81
2022-08-23T23:29:38.157Z,99175.03
2022-08-23T23:32:27.561Z,99154.13
2022-08-23T23:35:16.750Z,99189.66
2022-08-23T23:38:07.148Z,99174.00
2022-08-23T23:40:54.035Z,99164.75
2022-08-23T23:43:41.047Z,99137.28
2022-08-23T23:46:30.725Z,99171.63
2022-08-23T23:49:51.463Z,99202.22
2022-08-23T23:52:39.525Z,99165.56
2022-08-23T23:55:26.451Z,99163.88
2022-08-23T23:58:15.557Z,99149.56
